Portland, Oregon
Traffic Map
Current Weather Conditions
Portland, Oregon
Overcast Light Rain
Overcast
13°
Feels Like: 13°
Wind Chill: 13° Ceiling: 1300
Heat Index: 13° Visibility: 10mi
Dew Point: 12° Wind: 14mph
Humidity: 93% Direction: 190° (S)
Pressure: 29.64in Gusts: 0mph
Raw Report DataKPDX 210153Z 19012KT 10SM -RA BKN013 BKN040 OVC080 13/12 A2964 RMK AO2 SLP036 P0005 T01330122
Traffic Incident Summary
Active as of:
Severity:
Category:
InformationThere was an issue retrieving the traffic information for this location. Please try a different location or try again shortly.
Advertisements
Track Severe Weather on mobile